createdAt,value
2023-03-03T06:19:34.649Z,1014.47
2023-03-03T06:29:34.788Z,1014.50
2023-03-03T06:39:34.664Z,1014.52
2023-03-03T06:49:34.760Z,1014.48
2023-03-03T06:59:34.782Z,1014.62
2023-03-03T07:09:34.741Z,1014.57
2023-03-03T07:19:34.676Z,1014.69
2023-03-03T07:29:34.674Z,1014.74
2023-03-03T07:39:34.736Z,1014.80
2023-03-03T07:49:34.804Z,1014.91
2023-03-03T07:59:34.633Z,1015.01
2023-03-03T08:09:34.842Z,1015.07
2023-03-03T08:19:34.798Z,1015.14
2023-03-03T08:29:34.856Z,1015.16
2023-03-03T08:39:34.870Z,1015.27
2023-03-03T08:49:34.985Z,1015.40
2023-03-03T08:59:35.455Z,1015.41
2023-03-03T09:09:35.321Z,1015.44
2023-03-03T09:19:37.252Z,1015.47
2023-03-03T09:29:34.957Z,1015.48
2023-03-03T09:39:35.101Z,1015.64
2023-03-03T09:49:35.176Z,1015.66
2023-03-03T09:59:34.983Z,1015.94
2023-03-03T10:09:35.300Z,1016.11
2023-03-03T10:19:35.160Z,1016.29
2023-03-03T10:29:35.034Z,1016.40
2023-03-03T10:39:35.166Z,1016.49
2023-03-03T10:49:35.045Z,1016.69
2023-03-03T10:59:35.188Z,1016.85
2023-03-03T11:09:35.169Z,1017.02
2023-03-03T11:19:35.444Z,1017.07
2023-03-03T11:29:35.250Z,1017.12
2023-03-03T11:39:35.274Z,1017.20
2023-03-03T11:49:35.333Z,1017.19
2023-03-03T11:59:35.251Z,1017.15
2023-03-03T12:09:35.100Z,1017.30
2023-03-03T12:19:35.426Z,1017.35
2023-03-03T12:29:35.425Z,1017.38
2023-03-03T12:39:35.723Z,1017.43
2023-03-03T12:49:42.748Z,1017.40
2023-03-03T12:59:35.588Z,1017.39
2023-03-03T13:09:35.555Z,1017.51
2023-03-03T13:19:35.414Z,1017.25
2023-03-03T13:29:35.577Z,1017.28
2023-03-03T13:39:35.540Z,1017.13
2023-03-03T13:49:35.399Z,1017.06
2023-03-03T13:59:35.566Z,1016.91
2023-03-03T14:09:35.428Z,1016.80
2023-03-03T14:19:35.499Z,1016.67
2023-03-03T14:29:35.591Z,1016.78
2023-03-03T14:39:35.666Z,1016.56
2023-03-03T14:49:35.593Z,1016.61
2023-03-03T14:59:35.559Z,1016.57
2023-03-03T15:09:35.665Z,1016.40
2023-03-03T15:19:35.789Z,1016.37
2023-03-03T15:29:35.649Z,1016.38
2023-03-03T15:39:35.497Z,1016.33
2023-03-03T15:49:38.068Z,1016.21
2023-03-03T15:59:35.746Z,1016.19
2023-03-03T16:09:35.691Z,1016.03
2023-03-03T16:19:35.552Z,1016.00
2023-03-03T16:29:35.624Z,1016.04
2023-03-03T16:39:35.556Z,1016.07
2023-03-03T16:49:35.361Z,1016.05
2023-03-03T16:59:35.440Z,1016.06
2023-03-03T17:09:35.428Z,1016.05
2023-03-03T17:19:35.395Z,1016.17
2023-03-03T17:29:35.604Z,1016.18
2023-03-03T17:39:35.464Z,1016.24
2023-03-03T17:49:35.549Z,1016.29
2023-03-03T17:59:35.545Z,1016.20
2023-03-03T18:09:35.663Z,1016.30
2023-03-03T18:19:35.521Z,1016.22
2023-03-03T18:29:35.559Z,1016.14
2023-03-03T18:39:35.446Z,1016.12
2023-03-03T18:49:35.454Z,1016.14
2023-03-03T18:59:35.575Z,1016.01
2023-03-03T19:09:35.722Z,1016.15
2023-03-03T19:19:35.801Z,1016.06
